Weather reports worldwide

Advertisment
Blomskog, Sweden (2408): temperature & dewpoint: 30.06.2020 19:00:00 - 06.07.2020 19:00:00 (CEST)Blomskog, Sweden (2408): reduced air pressure: 30.06.2020 19:00:00 - 06.07.2020 19:00:00 (CEST)Blomskog, Sweden (2408): precipitation: 30.06.2020 19:00:00 - 06.07.2020 19:00:00 (CEST)
Date & Time tt [°C] td [°C] ppp [hPa] rr [mm]
06.07.2020 19:00:00 - - - -
06.07.2020 18:00:00 13,4 12,0 992,8 0,0
06.07.2020 17:00:00 11,8 10,9 991,8 0,0
06.07.2020 16:00:00 14,6 10,8 990,4 0,0
06.07.2020 15:00:00 12,7 11,4 989,9 0,0
06.07.2020 14:00:00 12,9 12,7 989,3 0,0
06.07.2020 13:00:00 12,3 11,5 989,1 0,0
06.07.2020 12:00:00 12,3 10,7 988,8 0,0
06.07.2020 11:00:00 11,6 10,2 988,6 0,0
06.07.2020 10:00:00 12,7 9,9 988,2 0,0
06.07.2020 09:00:00 12,3 8,4 988,2 0,0
06.07.2020 08:00:00 12,0 8,5 988,1 0,0
06.07.2020 07:00:00 12,0 7,9 987,9 0,0
06.07.2020 06:00:00 11,8 7,9 988,1 0,0
06.07.2020 05:00:00 11,8 7,6 988,3 0,0
06.07.2020 04:00:00 11,8 7,5 988,5 0,0
06.07.2020 03:00:00 12,0 7,9 988,8 0,0
06.07.2020 02:00:00 11,9 7,8 989,0 0,0
06.07.2020 01:00:00 12,1 8,0 989,1 0,0
06.07.2020 00:00:00 12,7 8,4 988,6 0,0
05.07.2020 23:00:00 13,2 9,3 988,3 0,0
05.07.2020 22:00:00 13,6 10,4 987,6 0,0
05.07.2020 21:00:00 13,4 11,3 987,0 0,0
05.07.2020 20:00:00 12,7 11,1 987,2 0,0
05.07.2020 19:00:00 13,6 10,4 987,4 0,0
05.07.2020 18:00:00 14,4 11,0 987,2 0,0
05.07.2020 17:00:00 14,7 10,7 987,4 0,0
05.07.2020 16:00:00 15,1 14,0 987,4 0,0
05.07.2020 15:00:00 15,7 15,5 987,2 0,0
05.07.2020 14:00:00 15,5 15,3 987,5 0,0
05.07.2020 13:00:00 14,6 14,4 988,0 0,0
05.07.2020 12:00:00 13,7 13,5 989,7 0,0
05.07.2020 11:00:00 12,8 12,6 992,2 0,0
05.07.2020 10:00:00 12,5 12,3 994,0 0,0
05.07.2020 09:00:00 12,4 12,2 996,0 0,0
05.07.2020 08:00:00 12,4 12,2 997,4 0,0
05.07.2020 07:00:00 12,3 12,1 998,3 0,0
05.07.2020 06:00:00 12,7 12,5 999,1 0,0
05.07.2020 05:00:00 12,3 12,1 999,7 0,0
05.07.2020 04:00:00 12,1 11,9 1000,5 0,0
05.07.2020 03:00:00 11,6 11,4 1001,2 0,0
05.07.2020 02:00:00 12,4 12,2 1002,0 0,0
05.07.2020 01:00:00 12,9 12,7 1001,7 0,0
05.07.2020 00:00:00 12,2 12,0 1002,1 0,0
04.07.2020 23:00:00 12,9 12,7 1002,1 0,0
04.07.2020 22:00:00 13,5 12,4 1001,8 0,0
04.07.2020 21:00:00 14,7 10,9 1001,9 0,0
04.07.2020 20:00:00 14,8 10,2 1002,0 0,0
04.07.2020 19:00:00 15,6 8,3 1002,1 0,0
04.07.2020 18:00:00 15,8 9,2 1002,3 0,0
04.07.2020 17:00:00 15,6 7,8 1002,5 0,0
04.07.2020 16:00:00 15,4 7,7 1002,5 0,0
04.07.2020 15:00:00 14,6 7,9 1002,6 0,0
04.07.2020 14:00:00 14,2 9,0 1002,6 0,0
04.07.2020 13:00:00 13,2 8,3 1002,6 0,0
04.07.2020 12:00:00 12,3 10,2 1002,5 0,0
04.07.2020 11:00:00 11,4 11,2 1002,2 0,0
04.07.2020 10:00:00 11,2 11,0 1001,8 0,0
04.07.2020 09:00:00 10,8 10,6 1001,2 0,0
04.07.2020 08:00:00 10,4 10,2 1001,0 0,0
04.07.2020 07:00:00 10,3 10,1 1001,3 0,0
04.07.2020 06:00:00 10,3 10,1 1001,4 0,0
04.07.2020 05:00:00 10,9 10,7 1001,6 0,0
04.07.2020 04:00:00 11,0 10,8 1001,8 0,0
04.07.2020 03:00:00 10,9 10,7 1002,5 0,0
04.07.2020 02:00:00 10,9 10,7 1003,2 0,0
04.07.2020 01:00:00 11,2 10,1 1003,8 0,0
04.07.2020 00:00:00 11,1 9,8 1004,4 0,0
03.07.2020 23:00:00 11,2 9,7 1005,3 0,0
03.07.2020 22:00:00 11,7 8,4 1005,8 0,0
03.07.2020 21:00:00 12,6 7,1 1005,7 0,0
03.07.2020 20:00:00 14,4 6,5 1006,0 0,0
03.07.2020 19:00:00 14,9 6,2 1006,2 0,0
03.07.2020 18:00:00 15,2 6,2 1006,4 0,0
03.07.2020 17:00:00 14,7 6,3 1006,7 0,0
03.07.2020 16:00:00 15,5 6,2 1006,9 0,0
03.07.2020 15:00:00 15,2 4,6 1007,0 0,0
03.07.2020 14:00:00 14,7 5,5 1007,3 0,0
03.07.2020 13:00:00 15,0 4,7 1007,0 0,0
03.07.2020 12:00:00 15,4 4,7 1006,7 0,0
03.07.2020 11:00:00 15,4 5,4 1006,7 0,0
03.07.2020 10:00:00 14,2 3,6 1006,5 0,0
03.07.2020 09:00:00 13,6 4,5 1006,3 0,0
03.07.2020 08:00:00 12,9 3,8 1006,3 0,0
03.07.2020 07:00:00 11,9 4,4 1006,0 0,0
03.07.2020 06:00:00 9,9 3,4 1006,0 0,0
03.07.2020 05:00:00 9,7 3,3 1005,6 0,0
03.07.2020 04:00:00 9,6 3,8 1005,3 0,0
03.07.2020 03:00:00 9,0 3,6 1005,1 0,0
03.07.2020 02:00:00 10,7 3,4 1004,5 0,0
03.07.2020 01:00:00 10,8 4,2 1004,2 0,0
03.07.2020 00:00:00 11,7 4,0 1003,7 0,0
02.07.2020 23:00:00 9,3 6,5 1003,5 0,0
02.07.2020 22:00:00 11,7 6,8 1002,8 0,0
02.07.2020 21:00:00 15,9 4,7 1002,2 0,0
02.07.2020 20:00:00 16,3 5,5 1002,1 0,0
02.07.2020 19:00:00 16,3 6,6 1001,6 0,0
02.07.2020 18:00:00 15,6 6,3 1001,7 0,0
02.07.2020 17:00:00 17,0 6,7 1001,3 0,0
02.07.2020 16:00:00 14,9 6,5 1001,2 0,0
02.07.2020 15:00:00 13,5 9,0 1000,7 0,0
02.07.2020 14:00:00 16,8 8,7 999,5 0,0
02.07.2020 13:00:00 15,3 8,8 999,1 0,0
02.07.2020 12:00:00 - - - -
02.07.2020 11:00:00 - - - -
02.07.2020 10:00:00 15,8 7,8 998,3 0,0
02.07.2020 09:00:00 14,6 9,8 998,2 0,0
02.07.2020 08:00:00 14,9 11,1 997,9 0,0
02.07.2020 07:00:00 13,5 12,9 997,9 0,0
02.07.2020 06:00:00 12,3 12,1 997,8 0,0
02.07.2020 05:00:00 10,8 10,6 997,9 0,0
02.07.2020 04:00:00 11,1 10,9 998,1 0,0
02.07.2020 03:00:00 11,1 10,9 998,3 0,0
02.07.2020 02:00:00 11,6 11,4 998,4 0,0
02.07.2020 01:00:00 11,5 11,3 998,6 0,0
02.07.2020 00:00:00 11,4 11,2 998,7 0,0
01.07.2020 23:00:00 11,5 11,4 998,7 0,0
01.07.2020 22:00:00 10,9 10,7 998,8 0,0
01.07.2020 21:00:00 11,6 10,3 998,6 2,2
01.07.2020 20:00:00 16,4 9,6 997,7 0,0
01.07.2020 19:00:00 16,4 8,1 997,9 0,0
01.07.2020 18:00:00 16,7 8,6 997,9 0,0
01.07.2020 17:00:00 17,1 9,2 997,9 0,0
01.07.2020 16:00:00 16,4 7,3 997,7 0,0
01.07.2020 15:00:00 16,5 7,4 997,5 0,0
01.07.2020 14:00:00 15,2 7,2 997,7 0,0
01.07.2020 13:00:00 14,5 8,0 997,3 0,0
01.07.2020 12:00:00 13,5 7,7 997,0 0,0
01.07.2020 11:00:00 12,2 7,7 996,8 0,0
01.07.2020 10:00:00 11,3 7,6 996,2 0,0
01.07.2020 09:00:00 11,2 8,4 995,7 0,0
01.07.2020 08:00:00 11,6 8,8 994,8 0,0
01.07.2020 07:00:00 11,1 9,5 994,0 0,0
01.07.2020 06:00:00 12,0 11,8 992,9 0,0
01.07.2020 05:00:00 12,1 11,9 992,5 0,0
01.07.2020 04:00:00 12,2 12,0 991,6 0,0
01.07.2020 03:00:00 11,2 10,9 991,0 0,0
01.07.2020 02:00:00 11,3 11,1 990,5 0,1
01.07.2020 01:00:00 12,3 12,1 990,3 0,1
01.07.2020 00:00:00 11,9 11,7 990,2 0,0
30.06.2020 23:00:00 10,3 10,1 990,2 0,0
30.06.2020 22:00:00 12,0 10,7 989,9 0,0
30.06.2020 21:00:00 13,2 11,1 989,7 0,0
30.06.2020 20:00:00 13,5 10,5 990,0 0,0
30.06.2020 19:00:00 14,1 10,3 990,0 0,1

tt = temperature
td = dewpoint
ppp = reduced air pressure
rr = precipitation

Next stations